sensor_id;sensor_type;location;lat;lon;timestamp;P1;durP1;ratioP1;P2;durP2;ratioP2
39176;SDS011;24904;52.208;21.192;2022-10-16T00:01:55;26.30;;;15.40;;
39176;SDS011;24904;52.208;21.192;2022-10-16T00:07:02;29.60;;;16.20;;
39176;SDS011;24904;52.208;21.192;2022-10-16T00:12:09;29.50;;;17.30;;
39176;SDS011;24904;52.208;21.192;2022-10-16T00:17:19;23.90;;;15.20;;
39176;SDS011;24904;52.208;21.192;2022-10-16T00:22:26;24.70;;;16.50;;
39176;SDS011;24904;52.208;21.192;2022-10-16T00:27:33;23.40;;;15.90;;
39176;SDS011;24904;52.208;21.192;2022-10-16T00:32:41;23.80;;;16.30;;
39176;SDS011;24904;52.208;21.192;2022-10-16T00:37:48;28.90;;;16.90;;
39176;SDS011;24904;52.208;21.192;2022-10-16T00:42:55;27.50;;;18.20;;
39176;SDS011;24904;52.208;21.192;2022-10-16T00:48:02;25.90;;;17.80;;
39176;SDS011;24904;52.208;21.192;2022-10-16T00:53:15;25.00;;;17.70;;
39176;SDS011;24904;52.208;21.192;2022-10-16T00:58:24;29.00;;;18.40;;
39176;SDS011;24904;52.208;21.192;2022-10-16T01:03:32;26.90;;;16.90;;
39176;SDS011;24904;52.208;21.192;2022-10-16T01:08:43;28.10;;;18.40;;
39176;SDS011;24904;52.208;21.192;2022-10-16T01:14:06;27.00;;;17.40;;
39176;SDS011;24904;52.208;21.192;2022-10-16T01:19:24;27.30;;;17.00;;
39176;SDS011;24904;52.208;21.192;2022-10-16T01:24:46;29.80;;;17.90;;
39176;SDS011;24904;52.208;21.192;2022-10-16T01:29:58;27.60;;;17.80;;
39176;SDS011;24904;52.208;21.192;2022-10-16T01:35:17;28.40;;;17.80;;
39176;SDS011;24904;52.208;21.192;2022-10-16T01:40:27;29.80;;;18.50;;
39176;SDS011;24904;52.208;21.192;2022-10-16T01:45:37;32.00;;;19.10;;
39176;SDS011;24904;52.208;21.192;2022-10-16T01:50:48;31.40;;;17.80;;
39176;SDS011;24904;52.208;21.192;2022-10-16T01:56:00;30.30;;;18.60;;
39176;SDS011;24904;52.208;21.192;2022-10-16T02:01:11;31.10;;;19.50;;
39176;SDS011;24904;52.208;21.192;2022-10-16T02:06:24;31.30;;;19.10;;
39176;SDS011;24904;52.208;21.192;2022-10-16T02:11:32;29.10;;;20.70;;
39176;SDS011;24904;52.208;21.192;2022-10-16T02:16:41;29.80;;;20.80;;
39176;SDS011;24904;52.208;21.192;2022-10-16T02:21:51;29.70;;;19.70;;
39176;SDS011;24904;52.208;21.192;2022-10-16T02:27:03;32.80;;;19.30;;
39176;SDS011;24904;52.208;21.192;2022-10-16T02:32:19;32.80;;;19.80;;
39176;SDS011;24904;52.208;21.192;2022-10-16T02:37:32;33.10;;;19.50;;
39176;SDS011;24904;52.208;21.192;2022-10-16T02:42:41;28.40;;;19.10;;
39176;SDS011;24904;52.208;21.192;2022-10-16T02:47:49;29.80;;;18.60;;
39176;SDS011;24904;52.208;21.192;2022-10-16T02:52:57;28.60;;;19.80;;
39176;SDS011;24904;52.208;21.192;2022-10-16T02:58:09;29.10;;;18.50;;
39176;SDS011;24904;52.208;21.192;2022-10-16T03:03:17;26.10;;;17.70;;
39176;SDS011;24904;52.208;21.192;2022-10-16T03:08:24;32.50;;;18.60;;
39176;SDS011;24904;52.208;21.192;2022-10-16T03:13:33;33.30;;;18.90;;
39176;SDS011;24904;52.208;21.192;2022-10-16T03:18:42;24.50;;;18.50;;
39176;SDS011;24904;52.208;21.192;2022-10-16T03:23:52;25.60;;;17.80;;
39176;SDS011;24904;52.208;21.192;2022-10-16T03:29:00;25.50;;;16.70;;
39176;SDS011;24904;52.208;21.192;2022-10-16T03:34:09;26.10;;;16.20;;
39176;SDS011;24904;52.208;21.192;2022-10-16T03:39:18;30.10;;;17.30;;
39176;SDS011;24904;52.208;21.192;2022-10-16T03:44:27;26.10;;;17.40;;
39176;SDS011;24904;52.208;21.192;2022-10-16T03:49:35;26.70;;;16.30;;
39176;SDS011;24904;52.208;21.192;2022-10-16T03:54:43;30.70;;;18.10;;
39176;SDS011;24904;52.208;21.192;2022-10-16T03:59:52;26.30;;;17.40;;
39176;SDS011;24904;52.208;21.192;2022-10-16T04:05:02;27.00;;;18.10;;
39176;SDS011;24904;52.208;21.192;2022-10-16T04:10:11;24.60;;;17.00;;
39176;SDS011;24904;52.208;21.192;2022-10-16T04:15:19;23.60;;;16.90;;
39176;SDS011;24904;52.208;21.192;2022-10-16T04:20:27;23.50;;;16.30;;
39176;SDS011;24904;52.208;21.192;2022-10-16T04:25:38;28.90;;;17.50;;
39176;SDS011;24904;52.208;21.192;2022-10-16T04:30:46;26.50;;;16.30;;
39176;SDS011;24904;52.208;21.192;2022-10-16T04:36:03;24.40;;;16.80;;
39176;SDS011;24904;52.208;21.192;2022-10-16T04:41:10;20.00;;;15.30;;
39176;SDS011;24904;52.208;21.192;2022-10-16T04:46:15;25.60;;;16.30;;
39176;SDS011;24904;52.208;21.192;2022-10-16T04:59:46;25.20;;;17.00;;
39176;SDS011;24904;52.208;21.192;2022-10-16T05:04:49;24.00;;;15.40;;
39176;SDS011;24904;52.208;21.192;2022-10-16T05:09:52;23.00;;;15.90;;
39176;SDS011;24904;52.208;21.192;2022-10-16T05:14:56;21.30;;;14.90;;
39176;SDS011;24904;52.208;21.192;2022-10-16T05:19:59;20.90;;;14.50;;
39176;SDS011;24904;52.208;21.192;2022-10-16T05:25:03;35.30;;;16.30;;
39176;SDS011;24904;52.208;21.192;2022-10-16T05:30:07;27.40;;;15.70;;
39176;SDS011;24904;52.208;21.192;2022-10-16T05:35:11;21.70;;;14.70;;
39176;SDS011;24904;52.208;21.192;2022-10-16T05:40:14;23.50;;;14.90;;
39176;SDS011;24904;52.208;21.192;2022-10-16T05:45:18;23.80;;;15.70;;
39176;SDS011;24904;52.208;21.192;2022-10-16T05:50:21;24.60;;;15.20;;
39176;SDS011;24904;52.208;21.192;2022-10-16T05:55:24;28.20;;;15.60;;
39176;SDS011;24904;52.208;21.192;2022-10-16T06:00:27;22.90;;;15.50;;
39176;SDS011;24904;52.208;21.192;2022-10-16T06:05:30;27.80;;;15.20;;
39176;SDS011;24904;52.208;21.192;2022-10-16T06:10:33;18.60;;;13.40;;
39176;SDS011;24904;52.208;21.192;2022-10-16T06:15:36;22.50;;;14.30;;
39176;SDS011;24904;52.208;21.192;2022-10-16T06:20:42;21.80;;;15.50;;
39176;SDS011;24904;52.208;21.192;2022-10-16T06:25:45;21.10;;;15.10;;
39176;SDS011;24904;52.208;21.192;2022-10-16T06:30:48;18.10;;;14.20;;
39176;SDS011;24904;52.208;21.192;2022-10-16T06:36:03;19.80;;;14.40;;
39176;SDS011;24904;52.208;21.192;2022-10-16T06:41:09;19.80;;;13.40;;
39176;SDS011;24904;52.208;21.192;2022-10-16T06:46:16;18.70;;;12.40;;
39176;SDS011;24904;52.208;21.192;2022-10-16T06:51:21;20.10;;;14.50;;
39176;SDS011;24904;52.208;21.192;2022-10-16T06:56:26;22.70;;;14.60;;
39176;SDS011;24904;52.208;21.192;2022-10-16T07:01:30;20.20;;;13.30;;
39176;SDS011;24904;52.208;21.192;2022-10-16T07:06:34;21.40;;;13.20;;
39176;SDS011;24904;52.208;21.192;2022-10-16T07:11:37;22.90;;;14.60;;
39176;SDS011;24904;52.208;21.192;2022-10-16T07:16:41;20.70;;;13.50;;
39176;SDS011;24904;52.208;21.192;2022-10-16T07:21:44;23.00;;;13.40;;
39176;SDS011;24904;52.208;21.192;2022-10-16T07:26:47;19.40;;;13.40;;
39176;SDS011;24904;52.208;21.192;2022-10-16T07:31:50;23.90;;;13.60;;
39176;SDS011;24904;52.208;21.192;2022-10-16T07:36:53;19.40;;;13.10;;
39176;SDS011;24904;52.208;21.192;2022-10-16T07:41:56;21.10;;;12.90;;
39176;SDS011;24904;52.208;21.192;2022-10-16T07:46:59;18.30;;;12.50;;
39176;SDS011;24904;52.208;21.192;2022-10-16T07:52:03;21.10;;;13.20;;
39176;SDS011;24904;52.208;21.192;2022-10-16T07:57:06;21.60;;;13.20;;
39176;SDS011;24904;52.208;21.192;2022-10-16T08:02:09;19.00;;;12.50;;
39176;SDS011;24904;52.208;21.192;2022-10-16T08:07:48;20.10;;;12.50;;
39176;SDS011;24904;52.208;21.192;2022-10-16T08:12:52;19.70;;;12.50;;
39176;SDS011;24904;52.208;21.192;2022-10-16T08:17:56;24.50;;;13.60;;
39176;SDS011;24904;52.208;21.192;2022-10-16T08:23:00;20.00;;;12.10;;
39176;SDS011;24904;52.208;21.192;2022-10-16T08:28:04;23.00;;;11.80;;
39176;SDS011;24904;52.208;21.192;2022-10-16T08:33:07;17.60;;;11.10;;
39176;SDS011;24904;52.208;21.192;2022-10-16T08:38:11;16.00;;;10.50;;
39176;SDS011;24904;52.208;21.192;2022-10-16T08:48:45;19.00;;;11.00;;
39176;SDS011;24904;52.208;21.192;2022-10-16T08:53:51;15.80;;;11.00;;
39176;SDS011;24904;52.208;21.192;2022-10-16T08:58:57;17.60;;;10.70;;
39176;SDS011;24904;52.208;21.192;2022-10-16T09:04:07;17.70;;;11.60;;
39176;SDS011;24904;52.208;21.192;2022-10-16T09:09:43;17.10;;;10.50;;
39176;SDS011;24904;52.208;21.192;2022-10-16T09:15:00;14.90;;;10.40;;
39176;SDS011;24904;52.208;21.192;2022-10-16T09:20:16;14.90;;;10.90;;
39176;SDS011;24904;52.208;21.192;2022-10-16T09:25:26;17.60;;;10.90;;
39176;SDS011;24904;52.208;21.192;2022-10-16T09:30:30;14.10;;;9.20;;
39176;SDS011;24904;52.208;21.192;2022-10-16T09:35:35;17.80;;;10.80;;
39176;SDS011;24904;52.208;21.192;2022-10-16T09:40:40;14.40;;;10.50;;
39176;SDS011;24904;52.208;21.192;2022-10-16T09:45:53;15.40;;;10.00;;
39176;SDS011;24904;52.208;21.192;2022-10-16T09:50:59;15.80;;;10.90;;
39176;SDS011;24904;52.208;21.192;2022-10-16T09:56:03;12.70;;;10.10;;
39176;SDS011;24904;52.208;21.192;2022-10-16T10:01:11;14.00;;;10.00;;
39176;SDS011;24904;52.208;21.192;2022-10-16T10:06:18;19.60;;;10.10;;
39176;SDS011;24904;52.208;21.192;2022-10-16T10:11:42;16.60;;;9.70;;
39176;SDS011;24904;52.208;21.192;2022-10-16T10:16:50;15.30;;;9.70;;
39176;SDS011;24904;52.208;21.192;2022-10-16T10:21:55;15.00;;;9.50;;
39176;SDS011;24904;52.208;21.192;2022-10-16T10:27:00;15.30;;;9.80;;
39176;SDS011;24904;52.208;21.192;2022-10-16T10:32:14;12.50;;;9.50;;
39176;SDS011;24904;52.208;21.192;2022-10-16T10:37:33;15.60;;;9.80;;
39176;SDS011;24904;52.208;21.192;2022-10-16T10:42:50;14.40;;;9.40;;
39176;SDS011;24904;52.208;21.192;2022-10-16T10:48:05;11.90;;;9.10;;
39176;SDS011;24904;52.208;21.192;2022-10-16T10:53:27;12.90;;;9.60;;
39176;SDS011;24904;52.208;21.192;2022-10-16T11:09:48;16.20;;;9.50;;
39176;SDS011;24904;52.208;21.192;2022-10-16T11:14:56;12.00;;;9.30;;
39176;SDS011;24904;52.208;21.192;2022-10-16T11:20:11;13.60;;;9.60;;
39176;SDS011;24904;52.208;21.192;2022-10-16T11:25:18;19.00;;;9.20;;
39176;SDS011;24904;52.208;21.192;2022-10-16T11:30:26;13.80;;;8.80;;
39176;SDS011;24904;52.208;21.192;2022-10-16T11:35:35;15.70;;;8.70;;
39176;SDS011;24904;52.208;21.192;2022-10-16T11:40:45;13.20;;;8.80;;
39176;SDS011;24904;52.208;21.192;2022-10-16T11:45:55;13.00;;;8.80;;
39176;SDS011;24904;52.208;21.192;2022-10-16T11:51:07;13.50;;;8.80;;
39176;SDS011;24904;52.208;21.192;2022-10-16T11:56:17;10.00;;;7.80;;
39176;SDS011;24904;52.208;21.192;2022-10-16T12:01:24;11.30;;;8.10;;
39176;SDS011;24904;52.208;21.192;2022-10-16T12:06:34;13.60;;;9.50;;
39176;SDS011;24904;52.208;21.192;2022-10-16T12:11:43;16.00;;;8.10;;
39176;SDS011;24904;52.208;21.192;2022-10-16T12:16:55;10.80;;;8.50;;
39176;SDS011;24904;52.208;21.192;2022-10-16T12:22:01;15.40;;;8.70;;
39176;SDS011;24904;52.208;21.192;2022-10-16T12:27:17;12.40;;;8.40;;
39176;SDS011;24904;52.208;21.192;2022-10-16T12:32:28;13.40;;;8.20;;
39176;SDS011;24904;52.208;21.192;2022-10-16T12:37:35;20.00;;;8.40;;
39176;SDS011;24904;52.208;21.192;2022-10-16T12:42:40;11.60;;;7.30;;
39176;SDS011;24904;52.208;21.192;2022-10-16T12:47:48;13.20;;;8.10;;
39176;SDS011;24904;52.208;21.192;2022-10-16T12:52:55;10.00;;;7.90;;
39176;SDS011;24904;52.208;21.192;2022-10-16T12:58:03;9.90;;;7.80;;
39176;SDS011;24904;52.208;21.192;2022-10-16T13:09:09;10.50;;;8.00;;
39176;SDS011;24904;52.208;21.192;2022-10-16T13:14:32;15.90;;;8.30;;
39176;SDS011;24904;52.208;21.192;2022-10-16T13:19:53;17.00;;;7.40;;
39176;SDS011;24904;52.208;21.192;2022-10-16T13:25:10;15.60;;;8.10;;
39176;SDS011;24904;52.208;21.192;2022-10-16T13:30:25;10.30;;;8.00;;
39176;SDS011;24904;52.208;21.192;2022-10-16T13:35:32;17.00;;;8.10;;
39176;SDS011;24904;52.208;21.192;2022-10-16T13:40:47;13.90;;;8.00;;
39176;SDS011;24904;52.208;21.192;2022-10-16T13:45:56;11.30;;;7.80;;
39176;SDS011;24904;52.208;21.192;2022-10-16T13:51:06;13.20;;;7.80;;
39176;SDS011;24904;52.208;21.192;2022-10-16T13:56:15;11.30;;;8.00;;
39176;SDS011;24904;52.208;21.192;2022-10-16T14:01:22;22.70;;;8.10;;
39176;SDS011;24904;52.208;21.192;2022-10-16T14:06:30;9.90;;;7.90;;
39176;SDS011;24904;52.208;21.192;2022-10-16T14:11:36;10.40;;;7.70;;
39176;SDS011;24904;52.208;21.192;2022-10-16T14:16:48;15.90;;;8.10;;
39176;SDS011;24904;52.208;21.192;2022-10-16T14:21:54;12.60;;;8.30;;
39176;SDS011;24904;52.208;21.192;2022-10-16T14:26:58;11.90;;;8.80;;
39176;SDS011;24904;52.208;21.192;2022-10-16T14:32:04;12.40;;;8.70;;
39176;SDS011;24904;52.208;21.192;2022-10-16T14:37:26;14.20;;;8.60;;
39176;SDS011;24904;52.208;21.192;2022-10-16T14:42:31;14.40;;;8.20;;
39176;SDS011;24904;52.208;21.192;2022-10-16T14:47:37;12.70;;;8.60;;
39176;SDS011;24904;52.208;21.192;2022-10-16T14:52:53;13.30;;;8.10;;
39176;SDS011;24904;52.208;21.192;2022-10-16T14:57:59;11.20;;;7.80;;
39176;SDS011;24904;52.208;21.192;2022-10-16T15:03:05;11.90;;;8.60;;
39176;SDS011;24904;52.208;21.192;2022-10-16T15:08:13;11.10;;;8.00;;
39176;SDS011;24904;52.208;21.192;2022-10-16T15:13:19;16.60;;;7.80;;
39176;SDS011;24904;52.208;21.192;2022-10-16T15:18:26;13.10;;;9.60;;
39176;SDS011;24904;52.208;21.192;2022-10-16T15:23:33;13.50;;;9.20;;
39176;SDS011;24904;52.208;21.192;2022-10-16T15:28:41;14.30;;;9.00;;
39176;SDS011;24904;52.208;21.192;2022-10-16T15:33:50;16.50;;;10.10;;
39176;SDS011;24904;52.208;21.192;2022-10-16T15:38:58;13.70;;;9.30;;
39176;SDS011;24904;52.208;21.192;2022-10-16T15:44:04;14.70;;;9.00;;
39176;SDS011;24904;52.208;21.192;2022-10-16T15:49:09;16.00;;;9.70;;
39176;SDS011;24904;52.208;21.192;2022-10-16T15:54:14;15.90;;;10.20;;
39176;SDS011;24904;52.208;21.192;2022-10-16T16:07:42;13.60;;;8.70;;
39176;SDS011;24904;52.208;21.192;2022-10-16T16:12:46;14.50;;;9.90;;
39176;SDS011;24904;52.208;21.192;2022-10-16T16:17:53;14.60;;;9.90;;
39176;SDS011;24904;52.208;21.192;2022-10-16T16:22:57;14.30;;;10.10;;
39176;SDS011;24904;52.208;21.192;2022-10-16T16:28:01;22.30;;;13.70;;
39176;SDS011;24904;52.208;21.192;2022-10-16T16:33:06;18.80;;;10.90;;
39176;SDS011;24904;52.208;21.192;2022-10-16T16:38:10;15.20;;;10.20;;
39176;SDS011;24904;52.208;21.192;2022-10-16T16:43:14;15.00;;;10.30;;
39176;SDS011;24904;52.208;21.192;2022-10-16T16:48:19;17.70;;;10.50;;
39176;SDS011;24904;52.208;21.192;2022-10-16T16:53:23;15.90;;;11.00;;
39176;SDS011;24904;52.208;21.192;2022-10-16T16:58:28;18.80;;;11.00;;
39176;SDS011;24904;52.208;21.192;2022-10-16T17:03:32;14.40;;;11.20;;
39176;SDS011;24904;52.208;21.192;2022-10-16T17:08:38;15.70;;;10.80;;
39176;SDS011;24904;52.208;21.192;2022-10-16T17:13:42;18.00;;;12.30;;
39176;SDS011;24904;52.208;21.192;2022-10-16T17:18:46;20.70;;;12.60;;
39176;SDS011;24904;52.208;21.192;2022-10-16T17:23:51;18.30;;;12.40;;
39176;SDS011;24904;52.208;21.192;2022-10-16T17:28:55;21.50;;;12.40;;
39176;SDS011;24904;52.208;21.192;2022-10-16T17:34:00;19.70;;;12.60;;
39176;SDS011;24904;52.208;21.192;2022-10-16T17:39:05;17.90;;;12.60;;
39176;SDS011;24904;52.208;21.192;2022-10-16T17:44:10;16.80;;;12.80;;
39176;SDS011;24904;52.208;21.192;2022-10-16T17:49:20;18.90;;;13.50;;
39176;SDS011;24904;52.208;21.192;2022-10-16T17:54:23;18.60;;;12.70;;
39176;SDS011;24904;52.208;21.192;2022-10-16T17:59:26;18.60;;;13.70;;
39176;SDS011;24904;52.208;21.192;2022-10-16T18:04:29;18.10;;;12.70;;
39176;SDS011;24904;52.208;21.192;2022-10-16T18:09:32;19.70;;;12.70;;
39176;SDS011;24904;52.208;21.192;2022-10-16T18:14:36;23.50;;;13.20;;
39176;SDS011;24904;52.208;21.192;2022-10-16T18:19:39;21.20;;;12.80;;
39176;SDS011;24904;52.208;21.192;2022-10-16T18:24:42;20.50;;;13.50;;
39176;SDS011;24904;52.208;21.192;2022-10-16T18:29:46;20.20;;;13.10;;
39176;SDS011;24904;52.208;21.192;2022-10-16T18:34:49;26.10;;;14.90;;
39176;SDS011;24904;52.208;21.192;2022-10-16T18:39:52;25.60;;;14.80;;
39176;SDS011;24904;52.208;21.192;2022-10-16T18:44:56;20.80;;;14.30;;
39176;SDS011;24904;52.208;21.192;2022-10-16T18:49:59;23.50;;;13.60;;
39176;SDS011;24904;52.208;21.192;2022-10-16T18:55:02;18.80;;;13.20;;
39176;SDS011;24904;52.208;21.192;2022-10-16T19:00:06;22.90;;;14.70;;
39176;SDS011;24904;52.208;21.192;2022-10-16T19:05:11;25.80;;;15.30;;
39176;SDS011;24904;52.208;21.192;2022-10-16T19:10:14;23.30;;;15.30;;
39176;SDS011;24904;52.208;21.192;2022-10-16T19:15:17;22.30;;;15.30;;
39176;SDS011;24904;52.208;21.192;2022-10-16T19:20:22;28.50;;;15.40;;
39176;SDS011;24904;52.208;21.192;2022-10-16T19:25:25;27.80;;;15.20;;
39176;SDS011;24904;52.208;21.192;2022-10-16T19:30:28;23.70;;;16.00;;
39176;SDS011;24904;52.208;21.192;2022-10-16T19:41:56;26.30;;;15.70;;
39176;SDS011;24904;52.208;21.192;2022-10-16T19:47:01;26.80;;;14.90;;
39176;SDS011;24904;52.208;21.192;2022-10-16T19:52:06;23.00;;;15.60;;
39176;SDS011;24904;52.208;21.192;2022-10-16T19:57:11;26.00;;;14.90;;
39176;SDS011;24904;52.208;21.192;2022-10-16T20:02:16;25.50;;;15.40;;
39176;SDS011;24904;52.208;21.192;2022-10-16T20:07:21;26.70;;;15.30;;
39176;SDS011;24904;52.208;21.192;2022-10-16T20:12:26;25.40;;;16.40;;
39176;SDS011;24904;52.208;21.192;2022-10-16T20:17:31;22.40;;;15.40;;
39176;SDS011;24904;52.208;21.192;2022-10-16T20:22:36;22.70;;;14.40;;
39176;SDS011;24904;52.208;21.192;2022-10-16T20:27:41;21.90;;;14.90;;
39176;SDS011;24904;52.208;21.192;2022-10-16T20:32:46;29.30;;;15.90;;
39176;SDS011;24904;52.208;21.192;2022-10-16T20:37:51;22.10;;;15.20;;
39176;SDS011;24904;52.208;21.192;2022-10-16T20:42:56;19.90;;;14.80;;
39176;SDS011;24904;52.208;21.192;2022-10-16T20:48:01;22.30;;;15.00;;
39176;SDS011;24904;52.208;21.192;2022-10-16T20:53:06;24.10;;;15.10;;
39176;SDS011;24904;52.208;21.192;2022-10-16T20:58:12;23.10;;;15.20;;
39176;SDS011;24904;52.208;21.192;2022-10-16T21:03:18;26.80;;;15.60;;
39176;SDS011;24904;52.208;21.192;2022-10-16T21:08:23;25.80;;;15.20;;
39176;SDS011;24904;52.208;21.192;2022-10-16T21:13:28;33.90;;;15.70;;
39176;SDS011;24904;52.208;21.192;2022-10-16T21:18:33;29.10;;;15.30;;
39176;SDS011;24904;52.208;21.192;2022-10-16T21:23:38;23.90;;;15.00;;
39176;SDS011;24904;52.208;21.192;2022-10-16T21:28:43;24.00;;;15.60;;
39176;SDS011;24904;52.208;21.192;2022-10-16T21:33:49;23.40;;;16.40;;
39176;SDS011;24904;52.208;21.192;2022-10-16T21:38:58;23.50;;;14.60;;
39176;SDS011;24904;52.208;21.192;2022-10-16T21:44:04;26.70;;;16.10;;
39176;SDS011;24904;52.208;21.192;2022-10-16T21:49:11;21.20;;;15.20;;
39176;SDS011;24904;52.208;21.192;2022-10-16T21:54:18;25.00;;;15.50;;
39176;SDS011;24904;52.208;21.192;2022-10-16T21:59:24;21.30;;;15.90;;
39176;SDS011;24904;52.208;21.192;2022-10-16T22:04:29;21.60;;;15.50;;
39176;SDS011;24904;52.208;21.192;2022-10-16T22:09:35;23.00;;;15.20;;
39176;SDS011;24904;52.208;21.192;2022-10-16T22:14:40;29.60;;;17.60;;
39176;SDS011;24904;52.208;21.192;2022-10-16T22:19:45;24.90;;;15.60;;
39176;SDS011;24904;52.208;21.192;2022-10-16T22:24:50;24.50;;;15.20;;
39176;SDS011;24904;52.208;21.192;2022-10-16T22:29:55;22.80;;;16.00;;
39176;SDS011;24904;52.208;21.192;2022-10-16T22:35:00;24.30;;;16.50;;
39176;SDS011;24904;52.208;21.192;2022-10-16T22:40:06;19.60;;;14.90;;
39176;SDS011;24904;52.208;21.192;2022-10-16T22:45:12;22.70;;;15.20;;
39176;SDS011;24904;52.208;21.192;2022-10-16T22:50:17;25.20;;;14.00;;
39176;SDS011;24904;52.208;21.192;2022-10-16T22:55:23;26.40;;;16.30;;
39176;SDS011;24904;52.208;21.192;2022-10-16T23:00:28;27.40;;;16.90;;
39176;SDS011;24904;52.208;21.192;2022-10-16T23:05:33;21.30;;;15.50;;
39176;SDS011;24904;52.208;21.192;2022-10-16T23:10:40;25.40;;;16.30;;
39176;SDS011;24904;52.208;21.192;2022-10-16T23:15:46;21.80;;;15.90;;
39176;SDS011;24904;52.208;21.192;2022-10-16T23:20:51;26.60;;;16.50;;
39176;SDS011;24904;52.208;21.192;2022-10-16T23:25:56;28.20;;;16.10;;
39176;SDS011;24904;52.208;21.192;2022-10-16T23:31:03;24.90;;;15.90;;
39176;SDS011;24904;52.208;21.192;2022-10-16T23:36:09;20.10;;;14.90;;
39176;SDS011;24904;52.208;21.192;2022-10-16T23:41:15;27.70;;;16.40;;
39176;SDS011;24904;52.208;21.192;2022-10-16T23:55:05;21.50;;;15.70;;
